createdAt,value
2019-03-06T10:26:22.808Z,995.89
2019-03-06T10:27:22.759Z,995.89
2019-03-06T10:28:27.825Z,995.93
2019-03-06T10:29:23.666Z,995.89
2019-03-06T10:30:22.618Z,995.86
2019-03-06T10:31:22.569Z,995.92
2019-03-06T10:32:22.537Z,995.87
2019-03-06T10:33:22.474Z,995.89
2019-03-06T10:34:22.418Z,995.80
2019-03-06T10:35:22.366Z,995.82
2019-03-06T10:36:22.318Z,995.75
2019-03-06T10:37:22.258Z,995.78
2019-03-06T10:38:22.180Z,995.75
2019-03-06T10:39:22.111Z,995.77
2019-03-06T10:40:22.041Z,995.75
2019-03-06T10:41:21.983Z,995.77
2019-03-06T10:42:21.965Z,995.72
2019-03-06T10:43:23.693Z,995.76
2019-03-06T10:44:28.801Z,995.70
2019-03-06T10:45:22.717Z,995.67
2019-03-06T10:46:21.651Z,995.67
2019-03-06T10:47:21.612Z,995.64
2019-03-06T10:48:21.519Z,995.66
2019-03-06T10:49:21.451Z,995.62
2019-03-06T10:50:26.809Z,995.64
2019-03-06T10:51:22.321Z,995.55
2019-03-06T10:52:21.247Z,995.65
2019-03-06T10:53:21.185Z,995.68
2019-03-06T10:54:21.119Z,995.61
2019-03-06T10:55:21.062Z,995.61
2019-03-06T10:56:20.987Z,995.57
2019-03-06T10:57:20.959Z,995.53
2019-03-06T10:58:20.869Z,995.55
2019-03-06T10:59:20.781Z,995.54
2019-03-06T11:00:20.706Z,995.55
2019-03-06T11:01:20.636Z,995.46
2019-03-06T11:02:20.573Z,995.43
2019-03-06T11:03:20.514Z,995.44
2019-03-06T11:04:20.436Z,995.40
2019-03-06T11:05:20.367Z,995.38
2019-03-06T11:06:20.297Z,995.33
2019-03-06T11:07:20.225Z,995.31
2019-03-06T11:08:20.169Z,995.29
2019-03-06T11:09:20.089Z,995.38
2019-03-06T11:10:23.964Z,995.33
2019-03-06T11:11:20.945Z,995.24
2019-03-06T11:12:19.871Z,995.15
2019-03-06T11:13:19.821Z,995.17
2019-03-06T11:14:19.742Z,995.14
2019-03-06T11:15:19.659Z,995.15
2019-03-06T11:16:19.588Z,995.15
2019-03-06T11:17:19.526Z,995.14
2019-03-06T11:18:19.456Z,995.09
2019-03-06T11:19:19.366Z,995.12
2019-03-06T11:20:19.293Z,995.02
2019-03-06T11:21:19.222Z,995.02
2019-03-06T11:22:19.147Z,995.04
2019-03-06T11:23:19.082Z,995.00
2019-03-06T11:24:19.001Z,994.97
2019-03-06T11:25:18.929Z,994.92
2019-03-06T11:26:18.853Z,994.94
2019-03-06T11:27:18.798Z,994.90
2019-03-06T11:28:18.722Z,994.88
2019-03-06T11:29:19.495Z,994.81
2019-03-06T11:30:18.570Z,994.77
2019-03-06T11:31:18.501Z,994.68
2019-03-06T11:32:18.421Z,994.71
2019-03-06T11:33:18.359Z,994.67
2019-03-06T11:34:18.276Z,994.64
2019-03-06T11:35:18.209Z,994.59
2019-03-06T11:36:18.130Z,994.64
2019-03-06T11:37:18.057Z,994.59
2019-03-06T11:38:17.996Z,994.57
2019-03-06T11:39:17.894Z,994.58
2019-03-06T11:40:17.815Z,994.59
2019-03-06T11:41:17.749Z,994.49
2019-03-06T11:42:17.666Z,994.50
2019-03-06T11:43:17.592Z,994.50
2019-03-06T11:44:17.528Z,994.55
2019-03-06T11:45:17.453Z,994.49
2019-03-06T11:46:17.374Z,994.49
2019-03-06T11:47:17.294Z,994.41
2019-03-06T11:48:17.220Z,994.45
2019-03-06T11:49:17.161Z,994.49
2019-03-06T11:50:17.089Z,994.46
2019-03-06T11:51:17.003Z,994.51
2019-03-06T11:52:16.929Z,994.46
2019-03-06T11:53:16.851Z,994.47
2019-03-06T11:54:16.881Z,994.49
2019-03-06T11:55:16.707Z,994.44
2019-03-06T11:56:16.636Z,994.46
2019-03-06T11:57:16.563Z,994.41
2019-03-06T11:58:16.489Z,994.37
2019-03-06T11:59:16.425Z,994.36
2019-03-06T12:00:16.345Z,994.39
2019-03-06T12:01:16.271Z,994.35
2019-03-06T12:02:16.958Z,994.32
2019-03-06T12:03:16.119Z,994.24
2019-03-06T12:04:16.069Z,994.31
2019-03-06T12:05:15.970Z,994.29
2019-03-06T12:06:15.897Z,994.30
2019-03-06T12:07:15.873Z,994.28
2019-03-06T12:08:15.758Z,994.29
2019-03-06T12:09:15.695Z,994.23
2019-03-06T12:10:15.620Z,994.29
2019-03-06T12:11:15.541Z,994.23
2019-03-06T12:12:15.466Z,994.27
2019-03-06T12:13:15.391Z,994.25
2019-03-06T12:14:15.331Z,994.23
2019-03-06T12:15:15.247Z,994.20
2019-03-06T12:16:15.165Z,994.21
2019-03-06T12:17:15.100Z,994.20
2019-03-06T12:18:15.013Z,994.17
2019-03-06T12:19:14.955Z,994.14
2019-03-06T12:20:14.862Z,994.13
2019-03-06T12:21:14.789Z,994.10
2019-03-06T12:22:14.723Z,994.07
2019-03-06T12:23:14.639Z,994.09
2019-03-06T12:24:14.574Z,994.01
2019-03-06T12:25:14.491Z,993.94
2019-03-06T12:26:14.424Z,993.89
2019-03-06T12:27:14.351Z,993.90
2019-03-06T12:28:14.279Z,993.87
2019-03-06T12:29:14.225Z,993.80
2019-03-06T12:30:14.144Z,993.83
2019-03-06T12:31:14.083Z,993.74
2019-03-06T12:32:14.017Z,993.70
2019-03-06T12:33:13.942Z,993.67
2019-03-06T12:34:13.867Z,993.65
2019-03-06T12:35:13.824Z,993.66
2019-03-06T12:36:13.738Z,993.61
2019-03-06T12:37:13.680Z,993.64
2019-03-06T12:38:13.664Z,993.70
2019-03-06T12:39:13.550Z,993.62
2019-03-06T12:40:14.853Z,993.56
2019-03-06T12:41:13.398Z,993.58
2019-03-06T12:42:14.567Z,993.58
2019-03-06T12:43:13.254Z,993.51
